sensor_id;sensor_type;location;lat;lon;timestamp;pressure;altitude;pressure_sealevel;temperature;humidity
71956;BME280;59829;50.562;6.258;2023-02-28T00:07:33;97386.16;;;24.57;32.45
71956;BME280;59829;50.562;6.258;2023-02-28T00:17:33;97385.41;;;24.49;32.56
71956;BME280;59829;50.562;6.258;2023-02-28T00:27:34;97391.00;;;24.38;32.72
71956;BME280;59829;50.562;6.258;2023-02-28T00:37:36;97381.34;;;24.38;32.74
71956;BME280;59829;50.562;6.258;2023-02-28T00:47:36;97391.34;;;24.34;32.70
71956;BME280;59829;50.562;6.258;2023-02-28T00:57:37;97385.09;;;24.27;32.92
71956;BME280;59829;50.562;6.258;2023-02-28T01:07:37;97390.69;;;24.24;33.02
71956;BME280;59829;50.562;6.258;2023-02-28T01:17:38;97386.47;;;24.15;32.84
71956;BME280;59829;50.562;6.258;2023-02-28T01:27:38;97395.78;;;24.18;32.79
71956;BME280;59829;50.562;6.258;2023-02-28T01:37:39;97388.44;;;24.13;32.93
71956;BME280;59829;50.562;6.258;2023-02-28T01:47:41;97384.34;;;24.11;32.90
71956;BME280;59829;50.562;6.258;2023-02-28T01:57:46;97384.56;;;24.01;33.08
71956;BME280;59829;50.562;6.258;2023-02-28T02:07:51;97375.72;;;24.02;33.19
71956;BME280;59829;50.562;6.258;2023-02-28T02:17:57;97369.00;;;23.99;33.01
71956;BME280;59829;50.562;6.258;2023-02-28T02:38:39;97356.09;;;23.90;33.07
71956;BME280;59829;50.562;6.258;2023-02-28T02:48:45;97357.91;;;23.89;32.93
71956;BME280;59829;50.562;6.258;2023-02-28T02:58:49;97354.81;;;23.86;33.13
71956;BME280;59829;50.562;6.258;2023-02-28T03:08:51;97356.13;;;23.82;33.04
71956;BME280;59829;50.562;6.258;2023-02-28T03:29:20;97344.03;;;23.81;33.21
71956;BME280;59829;50.562;6.258;2023-02-28T03:39:28;97347.31;;;23.74;33.25
71956;BME280;59829;50.562;6.258;2023-02-28T03:49:53;97345.69;;;23.73;32.94
71956;BME280;59829;50.562;6.258;2023-02-28T04:00:04;97342.06;;;23.74;33.00
71956;BME280;59829;50.562;6.258;2023-02-28T04:10:07;97337.00;;;23.73;33.14
71956;BME280;59829;50.562;6.258;2023-02-28T04:20:08;97346.00;;;23.70;33.13
71956;BME280;59829;50.562;6.258;2023-02-28T04:30:10;97348.97;;;23.67;33.05
71956;BME280;59829;50.562;6.258;2023-02-28T04:40:11;97341.25;;;23.74;33.07
71956;BME280;59829;50.562;6.258;2023-02-28T04:50:11;97346.00;;;23.70;33.04
71956;BME280;59829;50.562;6.258;2023-02-28T05:00:12;97351.59;;;23.67;33.01
71956;BME280;59829;50.562;6.258;2023-02-28T05:10:15;97353.91;;;23.62;33.19
71956;BME280;59829;50.562;6.258;2023-02-28T05:20:16;97368.25;;;23.58;33.13
71956;BME280;59829;50.562;6.258;2023-02-28T05:30:17;97361.72;;;23.54;32.99
71956;BME280;59829;50.562;6.258;2023-02-28T05:40:17;97366.28;;;23.60;33.01
71956;BME280;59829;50.562;6.258;2023-02-28T05:50:19;97360.06;;;23.53;33.02
71956;BME280;59829;50.562;6.258;2023-02-28T06:00:20;97361.72;;;23.54;32.76
71956;BME280;59829;50.562;6.258;2023-02-28T06:10:20;97358.44;;;23.68;32.80
71956;BME280;59829;50.562;6.258;2023-02-28T06:20:20;97360.75;;;23.63;33.47
71956;BME280;59829;50.562;6.258;2023-02-28T06:30:22;97368.25;;;23.58;33.70
71956;BME280;59829;50.562;6.258;2023-02-28T06:40:28;97373.31;;;23.52;34.58
71956;BME280;59829;50.562;6.258;2023-02-28T06:50:31;97385.28;;;23.46;35.18
71956;BME280;59829;50.562;6.258;2023-02-28T07:00:32;97402.56;;;23.55;36.57
71956;BME280;59829;50.562;6.258;2023-02-28T07:10:33;97409.13;;;23.51;37.57
71956;BME280;59829;50.562;6.258;2023-02-28T07:20:33;97408.94;;;23.53;37.67
71956;BME280;59829;50.562;6.258;2023-02-28T07:30:34;97417.31;;;23.48;37.72
71956;BME280;59829;50.562;6.258;2023-02-28T07:40:35;97402.91;;;23.52;37.04
71956;BME280;59829;50.562;6.258;2023-02-28T07:50:35;97412.38;;;23.53;36.87
71956;BME280;59829;50.562;6.258;2023-02-28T08:00:36;97414.03;;;23.54;36.20
71956;BME280;59829;50.562;6.258;2023-02-28T08:10:36;97426.81;;;23.65;35.83
71956;BME280;59829;50.562;6.258;2023-02-28T08:20:37;97415.34;;;23.74;35.72
71956;BME280;59829;50.562;6.258;2023-02-28T08:30:37;97423.81;;;23.93;35.29
71956;BME280;59829;50.562;6.258;2023-02-28T08:40:38;97419.50;;;24.24;34.51
71956;BME280;59829;50.562;6.258;2023-02-28T08:50:38;97430.59;;;24.43;34.12
71956;BME280;59829;50.562;6.258;2023-02-28T09:00:39;97420.03;;;24.59;33.86
71956;BME280;59829;50.562;6.258;2023-02-28T09:10:39;97428.13;;;24.80;33.58
71956;BME280;59829;50.562;6.258;2023-02-28T09:20:41;97423.50;;;24.90;33.31
71956;BME280;59829;50.562;6.258;2023-02-28T09:30:44;97432.00;;;24.92;33.17
71956;BME280;59829;50.562;6.258;2023-02-28T09:40:56;97416.56;;;25.06;32.99
71956;BME280;59829;50.562;6.258;2023-02-28T09:51:05;97426.34;;;25.12;32.79
71956;BME280;59829;50.562;6.258;2023-02-28T10:11:25;97435.09;;;25.27;32.84
71956;BME280;59829;50.562;6.258;2023-02-28T10:21:35;97424.41;;;25.29;32.99
71956;BME280;59829;50.562;6.258;2023-02-28T10:31:38;97427.28;;;25.42;32.71
71956;BME280;59829;50.562;6.258;2023-02-28T10:41:42;97424.34;;;25.60;32.64
71956;BME280;59829;50.562;6.258;2023-02-28T10:51:42;97430.84;;;25.64;32.54
71956;BME280;59829;50.562;6.258;2023-02-28T11:01:45;97418.63;;;25.79;32.27
71956;BME280;59829;50.562;6.258;2023-02-28T11:11:49;97409.34;;;26.06;32.08
71956;BME280;59829;50.562;6.258;2023-02-28T11:21:56;97401.78;;;26.03;32.33
71956;BME280;59829;50.562;6.258;2023-02-28T11:32:19;97405.97;;;26.27;32.02
71956;BME280;59829;50.562;6.258;2023-02-28T11:53:02;97387.84;;;26.61;31.26
71956;BME280;59829;50.562;6.258;2023-02-28T12:13:34;97399.44;;;26.52;31.37
71956;BME280;59829;50.562;6.258;2023-02-28T12:34:12;97379.47;;;26.72;31.49
71956;BME280;59829;50.562;6.258;2023-02-28T12:44:26;97367.88;;;27.03;31.05
71956;BME280;59829;50.562;6.258;2023-02-28T13:15:20;97348.94;;;27.08;30.75
71956;BME280;59829;50.562;6.258;2023-02-28T13:35:43;97334.81;;;27.15;31.08
71956;BME280;59829;50.562;6.258;2023-02-28T13:46:08;97324.91;;;27.17;30.52
71956;BME280;59829;50.562;6.258;2023-02-28T14:16:47;97324.41;;;27.07;31.03
71956;BME280;59829;50.562;6.258;2023-02-28T14:37:13;97312.88;;;26.87;31.23
71956;BME280;59829;50.562;6.258;2023-02-28T14:47:15;97304.78;;;26.67;31.13
71956;BME280;59829;50.562;6.258;2023-02-28T14:57:28;97309.47;;;26.50;31.21
71956;BME280;59829;50.562;6.258;2023-02-28T15:07:29;97310.50;;;26.20;31.64
71956;BME280;59829;50.562;6.258;2023-02-28T15:17:30;97308.28;;;25.87;31.94
71956;BME280;59829;50.562;6.258;2023-02-28T15:27:32;97303.84;;;25.73;31.83
71956;BME280;59829;50.562;6.258;2023-02-28T15:37:39;97301.09;;;25.51;32.32
71956;BME280;59829;50.562;6.258;2023-02-28T15:47:45;97306.31;;;25.37;32.09
71956;BME280;59829;50.562;6.258;2023-02-28T15:57:50;97311.19;;;25.25;32.23
71956;BME280;59829;50.562;6.258;2023-02-28T16:07:51;97321.81;;;25.09;32.48
71956;BME280;59829;50.562;6.258;2023-02-28T16:17:52;97324.50;;;25.01;32.17
71956;BME280;59829;50.562;6.258;2023-02-28T16:27:54;97339.59;;;24.90;32.35
71956;BME280;59829;50.562;6.258;2023-02-28T16:37:55;97341.34;;;24.75;32.38
71956;BME280;59829;50.562;6.258;2023-02-28T16:47:56;97345.19;;;24.64;32.41
71956;BME280;59829;50.562;6.258;2023-02-28T16:57:58;97351.00;;;24.52;32.51
71956;BME280;59829;50.562;6.258;2023-02-28T17:07:59;97355.25;;;24.45;32.57
71956;BME280;59829;50.562;6.258;2023-02-28T17:17:59;97368.56;;;24.27;32.78
71956;BME280;59829;50.562;6.258;2023-02-28T17:27:59;97372.75;;;24.13;32.79
71956;BME280;59829;50.562;6.258;2023-02-28T17:38:00;97387.47;;;24.06;32.87
71956;BME280;59829;50.562;6.258;2023-02-28T17:48:00;97389.16;;;23.91;32.91
71956;BME280;59829;50.562;6.258;2023-02-28T17:58:01;97407.31;;;23.84;33.15
71956;BME280;59829;50.562;6.258;2023-02-28T18:08:03;97407.81;;;23.80;32.94
71956;BME280;59829;50.562;6.258;2023-02-28T18:18:04;97401.44;;;23.74;33.00
71956;BME280;59829;50.562;6.258;2023-02-28T18:28:06;97398.34;;;23.70;32.98
71956;BME280;59829;50.562;6.258;2023-02-28T18:38:14;97394.44;;;23.66;33.01
71956;BME280;59829;50.562;6.258;2023-02-28T18:48:14;97388.06;;;23.61;33.03
71956;BME280;59829;50.562;6.258;2023-02-28T18:58:15;97394.44;;;23.58;32.98
71956;BME280;59829;50.562;6.258;2023-02-28T19:08:16;97408.50;;;23.57;32.99
71956;BME280;59829;50.562;6.258;2023-02-28T19:18:16;97411.09;;;23.49;32.87
71956;BME280;59829;50.562;6.258;2023-02-28T19:28:16;97417.63;;;23.53;32.96
71956;BME280;59829;50.562;6.258;2023-02-28T19:38:17;97411.09;;;23.49;32.74
71956;BME280;59829;50.562;6.258;2023-02-28T19:48:17;97407.34;;;23.43;32.90
71956;BME280;59829;50.562;6.258;2023-02-28T19:58:24;97409.59;;;23.38;32.85
71956;BME280;59829;50.562;6.258;2023-02-28T20:08:24;97408.78;;;23.38;32.76
71956;BME280;59829;50.562;6.258;2023-02-28T20:18:24;97418.75;;;23.34;32.67
71956;BME280;59829;50.562;6.258;2023-02-28T20:33:22;97414.69;;;23.81;32.43
71956;BME280;59829;50.562;6.258;2023-02-28T20:43:23;97411.09;;;23.82;32.25
71956;BME280;59829;50.562;6.258;2023-02-28T20:53:24;97416.97;;;23.75;32.39
71956;BME280;59829;50.562;6.258;2023-02-28T21:03:25;97418.91;;;23.90;32.21
71956;BME280;59829;50.562;6.258;2023-02-28T21:24:26;97401.94;;;23.69;31.22
71956;BME280;59829;50.562;6.258;2023-02-28T21:34:27;97404.22;;;23.48;29.65
71956;BME280;59829;50.562;6.258;2023-02-28T21:44:28;97396.69;;;23.53;29.19
71956;BME280;59829;50.562;6.258;2023-02-28T21:54:29;97388.22;;;23.67;28.29
71956;BME280;59829;50.562;6.258;2023-02-28T22:04:29;97384.38;;;23.94;27.22
71956;BME280;59829;50.562;6.258;2023-02-28T22:14:30;97376.69;;;23.93;26.71
71956;BME280;59829;50.562;6.258;2023-02-28T22:24:30;97394.34;;;24.07;26.36
71956;BME280;59829;50.562;6.258;2023-02-28T22:34:30;97397.25;;;24.20;26.10
71956;BME280;59829;50.562;6.258;2023-02-28T22:44:31;97397.56;;;24.25;25.60
71956;BME280;59829;50.562;6.258;2023-02-28T22:54:31;97402.16;;;24.31;25.31
71956;BME280;59829;50.562;6.258;2023-02-28T23:04:32;97403.78;;;24.32;25.43
71956;BME280;59829;50.562;6.258;2023-02-28T23:14:32;97413.41;;;24.48;26.70
71956;BME280;59829;50.562;6.258;2023-02-28T23:24:33;97406.72;;;24.38;27.46
71956;BME280;59829;50.562;6.258;2023-02-28T23:34:34;97410.25;;;24.53;27.95
71956;BME280;59829;50.562;6.258;2023-02-28T23:44:35;97405.41;;;24.73;27.80
71956;BME280;59829;50.562;6.258;2023-02-28T23:54:35;97389.63;;;24.81;28.12
